createdAt,value
2023-02-23T00:01:57.147Z,26.83
2023-02-23T00:04:25.103Z,28.13
2023-02-23T00:06:53.324Z,27.87
2023-02-23T00:09:23.436Z,25.63
2023-02-23T00:11:51.470Z,27.53
2023-02-23T00:14:18.473Z,28.77
2023-02-23T00:16:45.413Z,28.67
2023-02-23T00:19:14.027Z,29.57
2023-02-23T00:21:41.575Z,28.00
2023-02-23T00:24:11.374Z,28.87
2023-02-23T00:26:39.715Z,30.03
2023-02-23T00:29:11.373Z,30.37
2023-02-23T00:31:38.915Z,29.53
2023-02-23T00:34:07.529Z,29.20
2023-02-23T00:36:35.605Z,29.40
2023-02-23T00:39:11.814Z,31.37
2023-02-23T00:41:38.519Z,30.07
2023-02-23T00:44:05.247Z,28.93
2023-02-23T00:46:32.119Z,29.27
2023-02-23T00:48:59.625Z,27.47
2023-02-23T00:51:30.953Z,28.93
2023-02-23T00:53:59.623Z,28.97
2023-02-23T00:56:27.389Z,31.93
2023-02-23T00:58:55.030Z,33.30
2023-02-23T01:01:22.587Z,30.90
2023-02-23T01:03:49.528Z,34.83
2023-02-23T01:06:17.592Z,36.37
2023-02-23T01:08:50.298Z,37.60
2023-02-23T01:11:23.196Z,36.43
2023-02-23T01:13:59.166Z,39.60
2023-02-23T01:16:29.047Z,36.63
2023-02-23T01:18:58.339Z,40.33
2023-02-23T01:21:33.803Z,38.47
2023-02-23T01:24:02.296Z,37.77
2023-02-23T01:26:34.043Z,35.73
2023-02-23T01:29:05.023Z,36.77
2023-02-23T01:31:31.959Z,38.80
2023-02-23T01:34:00.909Z,38.50
2023-02-23T01:36:31.288Z,38.93
2023-02-23T01:39:00.099Z,41.37
2023-02-23T01:41:28.609Z,41.20
2023-02-23T01:44:08.004Z,41.83
2023-02-23T01:46:40.275Z,37.77
2023-02-23T01:49:12.272Z,38.13
2023-02-23T01:51:43.813Z,40.97
2023-02-23T01:54:16.014Z,42.10
2023-02-23T01:56:47.409Z,45.67
2023-02-23T01:59:15.674Z,43.43
2023-02-23T02:01:43.767Z,46.93
2023-02-23T02:04:16.848Z,44.13
2023-02-23T02:06:46.943Z,48.40
2023-02-23T02:09:17.521Z,47.03
2023-02-23T02:11:46.409Z,47.30
2023-02-23T02:14:15.599Z,46.10
2023-02-23T02:16:45.097Z,45.47
2023-02-23T02:19:39.188Z,45.10
2023-02-23T02:22:30.852Z,43.00
2023-02-23T02:24:57.552Z,42.90
2023-02-23T02:27:47.289Z,44.13
2023-02-23T02:30:23.157Z,41.27
2023-02-23T02:33:11.049Z,41.60
2023-02-23T02:35:56.195Z,41.40
2023-02-23T02:38:53.784Z,40.90
2023-02-23T02:41:42.412Z,44.17
2023-02-23T02:44:23.460Z,42.13
2023-02-23T02:46:57.429Z,43.10
2023-02-23T02:49:45.301Z,45.70
2023-02-23T02:52:16.481Z,45.20
2023-02-23T02:54:53.561Z,43.53
2023-02-23T02:57:24.175Z,45.83
2023-02-23T03:00:09.781Z,44.60
2023-02-23T03:02:57.654Z,44.60
2023-02-23T03:06:00.251Z,43.93
2023-02-23T03:09:03.715Z,46.40
2023-02-23T03:11:59.586Z,47.47
2023-02-23T03:14:45.092Z,46.00
2023-02-23T03:17:42.390Z,45.17
2023-02-23T03:20:43.099Z,47.27
2023-02-23T03:23:47.278Z,47.70
2023-02-23T03:26:55.740Z,47.50
2023-02-23T03:30:04.295Z,48.13
2023-02-23T03:33:12.777Z,48.40
2023-02-23T03:36:28.647Z,47.00
2023-02-23T03:39:44.921Z,48.60
2023-02-23T03:42:37.871Z,48.13
2023-02-23T03:45:28.988Z,47.80
2023-02-23T03:48:16.925Z,48.63
2023-02-23T03:51:08.617Z,50.60
2023-02-23T03:54:11.704Z,50.23
2023-02-23T03:57:02.978Z,50.00
2023-02-23T03:59:52.937Z,50.17
2023-02-23T04:02:40.096Z,52.97
2023-02-23T04:05:32.264Z,53.83
2023-02-23T04:08:21.701Z,51.07
2023-02-23T04:11:25.926Z,51.87
2023-02-23T04:13:57.143Z,50.10
2023-02-23T04:16:23.864Z,52.30
2023-02-23T04:18:50.638Z,53.83
2023-02-23T04:21:17.714Z,53.37
2023-02-23T04:23:44.599Z,53.77
2023-02-23T04:26:11.291Z,54.67
2023-02-23T04:28:37.954Z,54.07
2023-02-23T04:31:04.937Z,58.13
2023-02-23T04:33:31.679Z,57.30
2023-02-23T04:35:58.358Z,58.50
2023-02-23T04:38:25.100Z,57.40
2023-02-23T04:40:51.869Z,57.67
2023-02-23T04:43:18.658Z,59.23
2023-02-23T04:45:45.660Z,59.00
2023-02-23T04:48:12.576Z,63.10
2023-02-23T04:53:21.694Z,64.53
2023-02-23T04:55:48.379Z,62.53
2023-02-23T04:58:15.820Z,62.63
2023-02-23T05:00:42.657Z,62.33
2023-02-23T05:03:09.793Z,65.07
2023-02-23T05:05:36.949Z,65.27
2023-02-23T05:08:03.884Z,67.03
2023-02-23T05:10:30.577Z,66.53
2023-02-23T05:12:58.127Z,66.70
2023-02-23T05:15:24.788Z,66.30
2023-02-23T05:17:51.480Z,70.30
2023-02-23T05:20:18.264Z,65.70
2023-02-23T05:22:45.038Z,68.60
2023-02-23T05:25:11.929Z,71.20
2023-02-23T05:27:39.163Z,69.87
2023-02-23T05:30:07.904Z,71.07
2023-02-23T05:32:35.193Z,72.50
2023-02-23T05:35:02.612Z,71.33
2023-02-23T05:37:29.292Z,74.17
2023-02-23T05:39:56.051Z,73.90
2023-02-23T05:42:22.822Z,71.10
2023-02-23T05:44:49.549Z,73.33
2023-02-23T05:47:16.297Z,71.47
2023-02-23T05:49:43.145Z,75.10
2023-02-23T05:52:09.812Z,72.10
2023-02-23T05:54:36.474Z,72.17
2023-02-23T05:57:03.226Z,70.20
2023-02-23T05:59:29.937Z,71.87
2023-02-23T06:01:56.666Z,77.97
2023-02-23T06:04:24.222Z,74.50
2023-02-23T06:06:51.063Z,78.67
2023-02-23T06:09:17.800Z,81.17
2023-02-23T06:11:44.644Z,80.77
2023-02-23T06:14:11.628Z,81.10
2023-02-23T06:16:39.298Z,76.57
2023-02-23T06:19:06.269Z,82.60
2023-02-23T06:21:33.285Z,84.33
2023-02-23T06:24:00.704Z,82.17
2023-02-23T06:26:27.938Z,81.87
2023-02-23T06:28:55.600Z,81.47
2023-02-23T06:31:22.465Z,80.23
2023-02-23T06:33:49.343Z,81.27
2023-02-23T06:36:16.377Z,84.27
2023-02-23T06:38:43.486Z,83.07
2023-02-23T06:41:11.713Z,86.17
2023-02-23T06:43:38.490Z,83.07
2023-02-23T06:46:06.444Z,81.80
2023-02-23T06:48:33.400Z,82.60
2023-02-23T06:51:00.345Z,82.67
2023-02-23T06:53:27.404Z,86.03
2023-02-23T06:55:54.059Z,85.57
2023-02-23T06:58:20.920Z,81.47
2023-02-23T07:00:47.656Z,85.87
2023-02-23T07:03:14.430Z,82.70
2023-02-23T07:05:41.197Z,83.20
2023-02-23T07:08:07.993Z,81.90
2023-02-23T07:10:35.109Z,84.10
2023-02-23T07:13:01.932Z,85.60
2023-02-23T07:15:28.824Z,86.30
2023-02-23T07:17:55.490Z,86.77
2023-02-23T07:20:22.274Z,81.10
2023-02-23T07:22:48.997Z,84.33
2023-02-23T07:25:15.820Z,83.70
2023-02-23T07:27:42.602Z,77.93
2023-02-23T07:30:10.238Z,86.20
2023-02-23T07:32:37.063Z,83.00
2023-02-23T07:35:05.141Z,81.60
2023-02-23T07:37:32.190Z,81.60
2023-02-23T07:40:01.030Z,82.30
2023-02-23T07:42:28.142Z,86.97
2023-02-23T07:44:54.921Z,77.23
2023-02-23T07:47:23.029Z,81.53
2023-02-23T07:49:49.853Z,82.50
2023-02-23T07:52:19.621Z,83.87
2023-02-23T07:54:46.452Z,86.60
2023-02-23T07:57:13.201Z,80.23
2023-02-23T07:59:39.978Z,83.30
2023-02-23T08:02:07.096Z,84.77
2023-02-23T08:04:33.876Z,80.40
2023-02-23T08:07:00.637Z,83.33
2023-02-23T08:09:27.452Z,80.23
2023-02-23T08:11:54.271Z,77.00
2023-02-23T08:14:23.610Z,82.03
2023-02-23T08:16:51.747Z,80.90
2023-02-23T08:19:18.880Z,78.93
2023-02-23T08:21:45.739Z,76.00
2023-02-23T08:24:12.422Z,81.97
2023-02-23T08:26:39.113Z,76.00
2023-02-23T08:29:05.891Z,78.90
2023-02-23T08:31:33.181Z,76.90
2023-02-23T08:34:00.268Z,75.70
2023-02-23T08:36:27.348Z,76.40
2023-02-23T08:38:57.515Z,71.83
2023-02-23T08:41:25.518Z,74.70
2023-02-23T08:43:52.271Z,78.00
2023-02-23T08:46:20.595Z,76.50
2023-02-23T08:48:47.340Z,74.90
2023-02-23T08:51:17.114Z,77.07
2023-02-23T08:53:43.910Z,72.60
2023-02-23T08:56:11.022Z,74.37
2023-02-23T08:58:37.856Z,73.57
2023-02-23T09:01:05.551Z,72.47
2023-02-23T09:03:35.232Z,71.27
2023-02-23T09:06:10.373Z,71.70
2023-02-23T09:08:37.595Z,67.70
2023-02-23T09:11:04.399Z,70.30
2023-02-23T09:13:31.327Z,66.80
2023-02-23T09:15:58.325Z,68.40
2023-02-23T09:18:27.852Z,64.87
2023-02-23T09:20:54.608Z,66.37
2023-02-23T09:23:21.432Z,63.90
2023-02-23T09:25:48.246Z,67.43
2023-02-23T09:28:16.944Z,62.43
2023-02-23T09:30:44.787Z,52.03
2023-02-23T09:33:12.111Z,47.00
2023-02-23T09:35:39.938Z,44.50
2023-02-23T09:38:08.090Z,43.50
2023-02-23T09:40:50.071Z,44.00
2023-02-23T09:43:25.541Z,42.13
2023-02-23T09:46:22.634Z,44.07
2023-02-23T09:48:49.567Z,42.37
2023-02-23T09:51:21.092Z,41.80
2023-02-23T09:53:49.985Z,42.97
2023-02-23T09:56:40.628Z,41.50
2023-02-23T09:59:12.862Z,41.23
2023-02-23T10:01:48.950Z,42.07
2023-02-23T10:04:46.965Z,40.03
2023-02-23T10:07:46.306Z,41.33
2023-02-23T10:10:26.210Z,41.90
2023-02-23T10:13:17.092Z,38.13
2023-02-23T10:15:57.674Z,44.00
2023-02-23T10:18:30.679Z,43.30
2023-02-23T10:21:13.219Z,42.80
2023-02-23T10:23:49.222Z,42.03
2023-02-23T10:26:19.813Z,40.60
2023-02-23T10:28:46.986Z,43.47
2023-02-23T10:31:25.079Z,43.60
2023-02-23T10:33:54.934Z,41.50
2023-02-23T10:36:42.587Z,42.40
2023-02-23T10:39:12.392Z,41.73
2023-02-23T10:41:40.047Z,43.70
2023-02-23T10:44:17.839Z,44.30
2023-02-23T10:46:48.163Z,44.20
2023-02-23T10:49:26.428Z,44.07
2023-02-23T10:51:55.765Z,42.97
2023-02-23T10:54:58.127Z,41.33
2023-02-23T10:57:29.146Z,44.07
2023-02-23T11:00:19.376Z,43.57
2023-02-23T11:02:48.143Z,42.67
2023-02-23T11:05:45.414Z,43.57
2023-02-23T11:08:21.225Z,44.10
2023-02-23T11:11:15.714Z,44.10
2023-02-23T11:13:44.420Z,43.67
2023-02-23T11:16:18.103Z,44.43
2023-02-23T11:18:56.515Z,42.93
2023-02-23T11:21:34.845Z,43.30
2023-02-23T11:24:15.333Z,42.20
2023-02-23T11:26:44.572Z,43.37
2023-02-23T11:29:29.465Z,42.87
2023-02-23T11:31:58.158Z,41.37
2023-02-23T11:34:31.403Z,43.40
2023-02-23T11:37:04.422Z,43.03
2023-02-23T11:39:31.952Z,42.87
2023-02-23T11:42:26.746Z,42.87
2023-02-23T11:45:12.175Z,45.00
2023-02-23T11:47:40.884Z,45.03
2023-02-23T11:50:20.058Z,44.73
2023-02-23T11:52:47.626Z,44.00
2023-02-23T11:55:19.593Z,45.70
2023-02-23T11:57:49.655Z,42.97
2023-02-23T12:00:25.052Z,45.40
2023-02-23T12:02:58.718Z,43.83
2023-02-23T12:05:31.019Z,44.20
2023-02-23T12:08:14.711Z,43.60
2023-02-23T12:10:51.696Z,43.57
2023-02-23T12:13:33.145Z,42.10
2023-02-23T12:16:18.852Z,44.27
2023-02-23T12:18:58.475Z,43.67
2023-02-23T12:21:40.527Z,45.00
2023-02-23T12:24:33.961Z,46.77
2023-02-23T12:27:06.406Z,44.53
2023-02-23T12:29:39.493Z,44.03
2023-02-23T12:32:17.972Z,45.10
2023-02-23T12:35:23.672Z,45.00
2023-02-23T12:38:27.648Z,45.53
2023-02-23T12:41:16.309Z,45.90
2023-02-23T12:43:59.866Z,46.47
2023-02-23T12:46:37.672Z,48.20
2023-02-23T12:49:17.451Z,47.57
2023-02-23T12:51:55.230Z,46.07
2023-02-23T12:54:21.930Z,48.60
2023-02-23T12:56:55.508Z,47.03
2023-02-23T12:59:37.894Z,45.80
2023-02-23T13:02:16.413Z,46.40
2023-02-23T13:05:15.422Z,44.60
2023-02-23T13:08:12.529Z,45.07
2023-02-23T13:10:58.583Z,44.97
2023-02-23T13:13:43.932Z,45.47
2023-02-23T13:16:25.653Z,43.93
2023-02-23T13:19:18.680Z,40.93
2023-02-23T13:21:55.860Z,41.10
2023-02-23T13:24:26.934Z,40.50
2023-02-23T13:27:07.045Z,40.80
2023-02-23T13:29:38.955Z,38.53
2023-02-23T13:32:15.480Z,37.70
2023-02-23T13:34:53.160Z,38.60
2023-02-23T13:37:35.138Z,37.50
2023-02-23T13:40:42.477Z,37.77
2023-02-23T13:43:40.210Z,37.60
2023-02-23T13:46:30.324Z,35.50
2023-02-23T13:49:16.914Z,31.87
2023-02-23T13:51:52.117Z,31.77
2023-02-23T13:54:30.586Z,29.63
2023-02-23T13:57:01.434Z,30.63
2023-02-23T13:59:45.398Z,28.03
2023-02-23T14:02:30.750Z,28.03
2023-02-23T14:05:03.371Z,29.70
2023-02-23T14:07:32.294Z,30.40
2023-02-23T14:10:06.558Z,28.60
2023-02-23T14:12:40.803Z,27.23
2023-02-23T14:15:25.587Z,23.30
2023-02-23T14:18:18.468Z,23.27
2023-02-23T14:20:54.034Z,20.83
2023-02-23T14:23:20.943Z,21.40
2023-02-23T14:25:47.724Z,21.40
2023-02-23T14:28:30.728Z,20.93
2023-02-23T14:31:20.393Z,21.67
2023-02-23T14:33:49.125Z,19.20
2023-02-23T14:36:21.939Z,19.87
2023-02-23T14:38:57.606Z,19.47
2023-02-23T14:41:27.185Z,19.00
2023-02-23T14:43:59.985Z,18.87
2023-02-23T14:46:27.865Z,17.43
2023-02-23T14:49:10.279Z,16.80
2023-02-23T14:52:01.792Z,18.67
2023-02-23T14:54:32.792Z,18.13
2023-02-23T14:57:02.183Z,16.50
2023-02-23T14:59:37.209Z,16.80
2023-02-23T15:02:10.480Z,16.90
2023-02-23T15:04:38.795Z,18.60
2023-02-23T15:07:06.606Z,18.63
2023-02-23T15:09:39.564Z,17.90
2023-02-23T15:12:20.176Z,18.40
2023-02-23T15:14:52.146Z,17.00
2023-02-23T15:17:23.138Z,16.97
2023-02-23T15:20:14.294Z,18.20
2023-02-23T15:22:43.261Z,20.67
2023-02-23T15:25:16.944Z,21.43
2023-02-23T15:27:45.717Z,20.47
2023-02-23T15:30:31.714Z,20.07
2023-02-23T15:33:04.929Z,19.63
2023-02-23T15:35:42.364Z,20.23
2023-02-23T15:38:17.958Z,20.27
2023-02-23T15:40:55.937Z,24.88
2023-02-23T15:43:23.316Z,21.40
2023-02-23T15:45:52.959Z,20.83
2023-02-23T15:48:26.401Z,19.43
2023-02-23T15:50:57.638Z,19.83
2023-02-23T15:53:41.181Z,18.83
2023-02-23T15:56:25.558Z,17.83
2023-02-23T15:58:57.380Z,31.87
2023-02-23T16:01:30.291Z,19.80
2023-02-23T16:04:16.088Z,16.87
2023-02-23T16:06:56.132Z,17.43
2023-02-23T16:09:27.020Z,18.63
2023-02-23T16:12:03.048Z,19.10
2023-02-23T16:14:46.246Z,17.20
2023-02-23T16:17:21.646Z,17.50
2023-02-23T16:19:48.616Z,18.97
2023-02-23T16:22:26.797Z,17.27
2023-02-23T16:25:07.530Z,17.97
2023-02-23T16:27:36.870Z,17.27
2023-02-23T16:30:24.094Z,16.17
2023-02-23T16:33:10.500Z,16.60
2023-02-23T16:35:45.323Z,16.47
2023-02-23T16:38:22.710Z,17.67
2023-02-23T16:40:49.628Z,17.90
2023-02-23T16:43:16.513Z,18.73
2023-02-23T16:45:43.690Z,18.47
2023-02-23T16:48:15.401Z,19.87
2023-02-23T16:50:42.566Z,22.13
2023-02-23T16:53:11.396Z,21.53
2023-02-23T16:55:48.547Z,23.77
2023-02-23T16:58:22.010Z,24.00
2023-02-23T17:00:49.016Z,20.27
2023-02-23T17:03:27.981Z,24.07
2023-02-23T17:05:56.103Z,22.93
2023-02-23T17:08:24.408Z,22.10
2023-02-23T17:10:54.244Z,19.70
2023-02-23T17:13:23.637Z,17.83
2023-02-23T17:15:53.687Z,20.17
2023-02-23T17:18:31.378Z,20.20
2023-02-23T17:21:00.150Z,24.30
2023-02-23T17:23:30.052Z,23.03
2023-02-23T17:25:57.491Z,23.90
2023-02-23T17:28:25.716Z,24.80
2023-02-23T17:30:52.464Z,24.13
2023-02-23T17:33:19.301Z,27.20
2023-02-23T17:35:46.814Z,26.50
2023-02-23T17:38:14.949Z,24.83
2023-02-23T17:40:41.714Z,27.90
2023-02-23T17:43:08.690Z,25.83
2023-02-23T17:45:35.477Z,26.97
2023-02-23T17:48:02.231Z,26.20
2023-02-23T17:50:28.991Z,27.13
2023-02-23T17:52:56.461Z,25.83
2023-02-23T17:55:24.564Z,25.53
2023-02-23T17:57:51.344Z,25.37
2023-02-23T18:00:19.108Z,24.87
2023-02-23T18:02:46.176Z,27.37
2023-02-23T18:05:14.187Z,25.23
2023-02-23T18:07:41.148Z,26.33
2023-02-23T18:10:09.145Z,27.17
2023-02-23T18:12:35.976Z,29.10
2023-02-23T18:15:03.110Z,27.80
2023-02-23T18:17:32.451Z,27.40
2023-02-23T18:19:59.764Z,28.53
2023-02-23T18:22:26.551Z,28.10
2023-02-23T18:24:53.675Z,29.33
2023-02-23T18:27:20.506Z,27.00
2023-02-23T18:29:47.404Z,25.57
2023-02-23T18:32:14.212Z,25.00
2023-02-23T18:34:41.025Z,28.27
2023-02-23T18:37:10.238Z,26.83
2023-02-23T18:39:37.193Z,27.47
2023-02-23T18:42:04.650Z,27.17
2023-02-23T18:44:34.068Z,28.90
2023-02-23T18:47:02.425Z,24.70
2023-02-23T18:49:29.239Z,25.20
2023-02-23T18:51:56.103Z,27.17
2023-02-23T18:54:25.902Z,25.40
2023-02-23T18:56:55.246Z,26.37
2023-02-23T18:59:22.044Z,26.13
2023-02-23T19:01:49.114Z,27.20
2023-02-23T19:04:16.198Z,27.03
2023-02-23T19:06:45.020Z,26.77
2023-02-23T19:09:14.363Z,30.63
2023-02-23T19:11:43.116Z,28.30
2023-02-23T19:14:16.017Z,30.63
2023-02-23T19:16:43.586Z,14.70
2023-02-23T19:19:10.947Z,9.33
2023-02-23T19:21:38.056Z,7.70
2023-02-23T19:24:05.919Z,7.10
2023-02-23T19:26:33.729Z,7.40
2023-02-23T19:29:00.956Z,5.90
2023-02-23T19:31:28.614Z,5.90
2023-02-23T19:33:56.878Z,6.53
2023-02-23T19:36:30.754Z,7.53
2023-02-23T19:39:10.221Z,6.17
2023-02-23T19:41:38.923Z,7.07
2023-02-23T19:44:05.905Z,7.17
2023-02-23T19:46:32.683Z,5.87
2023-02-23T19:48:59.971Z,5.70
2023-02-23T19:51:27.127Z,6.23
2023-02-23T19:53:55.274Z,5.47
2023-02-23T19:56:24.640Z,5.90
2023-02-23T19:58:52.571Z,6.20
2023-02-23T20:01:22.043Z,7.43
2023-02-23T20:03:55.519Z,6.50
2023-02-23T20:06:25.680Z,6.33
2023-02-23T20:08:52.680Z,5.93
2023-02-23T20:11:20.247Z,6.40
2023-02-23T20:13:47.258Z,6.50
2023-02-23T20:16:15.145Z,5.50
2023-02-23T20:18:42.294Z,6.90
2023-02-23T20:21:18.463Z,7.60
2023-02-23T20:23:47.212Z,7.90
2023-02-23T20:26:19.884Z,6.83
2023-02-23T20:28:46.978Z,7.60
2023-02-23T20:31:20.712Z,7.70
2023-02-23T20:33:50.949Z,7.70
2023-02-23T20:36:19.194Z,6.60
2023-02-23T20:38:46.131Z,6.80
2023-02-23T20:41:12.846Z,6.77
2023-02-23T20:43:40.144Z,6.60
2023-02-23T20:46:07.514Z,6.83
2023-02-23T20:48:35.406Z,7.07
2023-02-23T20:51:02.528Z,6.93
2023-02-23T20:53:30.023Z,6.47
2023-02-23T20:55:56.952Z,7.00
2023-02-23T20:58:24.979Z,6.60
2023-02-23T21:00:56.940Z,7.20
2023-02-23T21:03:27.510Z,6.10
2023-02-23T21:05:54.671Z,6.40
2023-02-23T21:08:21.681Z,6.97
2023-02-23T21:10:50.183Z,7.10
2023-02-23T21:13:18.186Z,6.70
2023-02-23T21:15:58.488Z,7.30
2023-02-23T21:18:25.579Z,9.67
2023-02-23T21:20:52.319Z,6.00
2023-02-23T21:23:21.450Z,5.50
2023-02-23T21:25:48.905Z,7.17
2023-02-23T21:28:15.667Z,5.93
2023-02-23T21:30:42.387Z,7.10
2023-02-23T21:33:09.241Z,7.10
2023-02-23T21:35:38.268Z,5.90
2023-02-23T21:38:05.095Z,5.60
2023-02-23T21:40:31.918Z,5.50
2023-02-23T21:42:58.690Z,5.80
2023-02-23T21:45:25.414Z,5.70
2023-02-23T21:47:52.156Z,5.60
2023-02-23T21:50:19.684Z,6.03
2023-02-23T21:52:48.644Z,6.43
2023-02-23T21:55:21.521Z,8.00
2023-02-23T22:15:28.465Z,6.90
2023-02-23T22:17:56.298Z,6.67
2023-02-23T22:20:23.205Z,6.67
2023-02-23T22:22:52.683Z,6.40
2023-02-23T22:25:20.179Z,7.23
2023-02-23T22:27:47.277Z,6.80
2023-02-23T22:30:15.121Z,6.13
2023-02-23T22:32:42.634Z,7.53
2023-02-23T22:35:10.228Z,7.10
2023-02-23T22:37:37.072Z,6.83
2023-02-23T22:40:16.803Z,6.30
2023-02-23T22:42:49.819Z,7.80
2023-02-23T22:45:17.582Z,6.60
2023-02-23T22:47:44.462Z,6.37
2023-02-23T22:50:18.087Z,6.43
2023-02-23T22:52:46.168Z,6.73
2023-02-23T22:55:13.112Z,6.83
2023-02-23T22:57:40.204Z,7.00
2023-02-23T23:00:10.552Z,6.73
2023-02-23T23:02:37.305Z,7.73
2023-02-23T23:05:04.357Z,6.80
2023-02-23T23:07:31.444Z,7.87
2023-02-23T23:09:58.726Z,6.47
2023-02-23T23:12:27.866Z,9.30
2023-02-23T23:14:56.076Z,7.00
2023-02-23T23:17:23.296Z,7.37
2023-02-23T23:19:50.141Z,6.20
2023-02-23T23:22:17.377Z,6.40
2023-02-23T23:24:46.193Z,7.13
2023-02-23T23:27:14.665Z,7.30
2023-02-23T23:29:45.692Z,7.00
2023-02-23T23:32:17.233Z,6.83
2023-02-23T23:34:48.770Z,7.90
2023-02-23T23:37:19.737Z,7.30
2023-02-23T23:39:46.496Z,6.47
2023-02-23T23:42:13.668Z,6.87
2023-02-23T23:44:40.357Z,6.50
2023-02-23T23:47:07.019Z,6.70
2023-02-23T23:49:38.583Z,6.07
2023-02-23T23:52:06.004Z,6.30
2023-02-23T23:54:38.892Z,5.03
2023-02-23T23:57:07.157Z,6.20
2023-02-23T23:59:35.329Z,5.60
